createdAt,value
2022-12-22T00:01:34.599Z,7.99
2022-12-22T00:04:24.117Z,8.00
2022-12-22T00:07:10.876Z,8.00
2022-12-22T00:09:57.040Z,8.06
2022-12-22T00:12:45.471Z,8.05
2022-12-22T00:15:34.310Z,8.05
2022-12-22T00:18:22.127Z,8.02
2022-12-22T00:21:08.716Z,8.04
2022-12-22T00:23:55.794Z,8.04
2022-12-22T00:26:41.704Z,8.04
2022-12-22T00:29:33.681Z,8.14
2022-12-22T00:32:19.680Z,8.09
2022-12-22T00:35:05.616Z,8.08
2022-12-22T00:37:53.085Z,8.11
2022-12-22T00:40:42.304Z,8.10
2022-12-22T00:43:28.655Z,8.10
2022-12-22T00:46:18.658Z,8.06
2022-12-22T00:49:05.284Z,8.10
2022-12-22T00:51:52.626Z,8.20
2022-12-22T00:54:39.281Z,8.16
2022-12-22T00:57:34.474Z,8.10
2022-12-22T01:00:20.568Z,8.22
2022-12-22T01:03:06.258Z,8.17
2022-12-22T01:05:52.715Z,8.18
2022-12-22T01:08:38.532Z,8.20
2022-12-22T01:11:26.479Z,8.19
2022-12-22T01:14:13.592Z,8.17
2022-12-22T01:16:59.203Z,8.17
2022-12-22T01:19:44.591Z,8.12
2022-12-22T01:22:36.447Z,8.20
2022-12-22T01:25:29.632Z,8.19
2022-12-22T01:28:14.731Z,8.24
2022-12-22T01:31:01.752Z,8.22
2022-12-22T01:33:47.500Z,8.19
2022-12-22T01:36:34.816Z,8.19
2022-12-22T01:39:20.241Z,8.20
2022-12-22T01:42:08.377Z,8.18
2022-12-22T01:44:53.749Z,8.24
2022-12-22T01:48:01.608Z,8.21
2022-12-22T01:50:51.021Z,8.23
2022-12-22T01:53:39.550Z,8.19
2022-12-22T01:56:25.771Z,8.18
2022-12-22T01:59:14.784Z,8.19
2022-12-22T02:02:01.810Z,8.19
2022-12-22T02:04:53.996Z,8.18
2022-12-22T02:07:56.530Z,8.25
2022-12-22T02:10:56.878Z,8.23
2022-12-22T02:13:52.968Z,8.18
2022-12-22T02:16:50.300Z,8.23
2022-12-22T02:19:52.684Z,8.23
2022-12-22T02:22:54.267Z,8.26
2022-12-22T02:25:47.233Z,8.20
2022-12-22T02:28:37.132Z,8.25
2022-12-22T02:31:38.155Z,8.21
2022-12-22T02:34:24.201Z,8.24
2022-12-22T02:37:25.321Z,8.20
2022-12-22T02:40:20.732Z,8.23
2022-12-22T02:43:21.453Z,8.22
2022-12-22T02:46:16.249Z,8.22
2022-12-22T02:49:08.883Z,8.12
2022-12-22T02:52:05.380Z,8.14
2022-12-22T02:54:53.513Z,8.18
2022-12-22T02:57:39.201Z,8.18
2022-12-22T03:00:26.392Z,8.17
2022-12-22T03:03:13.681Z,8.18
2022-12-22T03:06:00.464Z,8.13
2022-12-22T03:08:46.098Z,8.16
2022-12-22T03:11:32.441Z,8.20
2022-12-22T03:14:17.907Z,8.14
2022-12-22T03:17:03.075Z,8.20
2022-12-22T03:19:49.764Z,8.18
2022-12-22T03:22:35.541Z,8.19
2022-12-22T03:25:21.095Z,8.16
2022-12-22T03:27:51.497Z,8.20
2022-12-22T03:30:19.727Z,8.25
2022-12-22T03:32:47.642Z,8.28
2022-12-22T03:35:23.707Z,8.23
2022-12-22T03:37:51.568Z,8.30
2022-12-22T03:40:19.647Z,8.23
2022-12-22T03:43:05.299Z,8.18
2022-12-22T03:45:53.431Z,8.24
2022-12-22T03:48:23.596Z,8.24
2022-12-22T03:50:53.133Z,8.20
2022-12-22T03:53:22.121Z,8.23
2022-12-22T03:55:50.769Z,8.19
2022-12-22T03:58:18.783Z,8.21
2022-12-22T04:00:46.735Z,8.20
2022-12-22T04:03:15.314Z,8.12
2022-12-22T04:05:46.787Z,8.19
2022-12-22T04:08:16.296Z,8.17
2022-12-22T04:11:04.080Z,8.16
2022-12-22T04:13:32.927Z,8.27
2022-12-22T04:16:08.780Z,8.19
2022-12-22T04:18:39.873Z,8.19
2022-12-22T04:21:11.737Z,8.18
2022-12-22T04:23:46.931Z,8.21
2022-12-22T04:26:14.837Z,8.14
2022-12-22T04:28:42.730Z,8.26
2022-12-22T04:31:11.245Z,8.21
2022-12-22T04:33:39.212Z,8.16
2022-12-22T04:36:08.013Z,8.13
2022-12-22T04:38:36.536Z,8.18
2022-12-22T04:41:06.743Z,8.18
2022-12-22T04:43:35.206Z,8.14
2022-12-22T04:46:03.740Z,8.14
2022-12-22T04:48:32.422Z,8.08
2022-12-22T04:51:02.580Z,8.08
2022-12-22T04:53:32.672Z,8.08
2022-12-22T04:56:03.068Z,8.15
2022-12-22T04:58:33.216Z,8.20
2022-12-22T05:01:10.178Z,8.20
2022-12-22T05:03:39.285Z,8.16
2022-12-22T05:06:07.740Z,8.22
2022-12-22T05:08:35.998Z,8.23
2022-12-22T05:11:03.909Z,8.17
2022-12-22T05:13:34.001Z,8.21
2022-12-22T05:16:06.856Z,8.23
2022-12-22T05:18:35.254Z,8.29
2022-12-22T05:21:07.557Z,8.27
2022-12-22T05:23:35.529Z,8.23
2022-12-22T05:26:03.365Z,8.17
2022-12-22T05:28:34.848Z,8.25
2022-12-22T05:31:08.533Z,8.22
2022-12-22T05:33:37.062Z,8.14
2022-12-22T05:36:07.975Z,8.11
2022-12-22T05:38:35.861Z,8.11
2022-12-22T05:41:04.903Z,8.06
2022-12-22T05:43:32.975Z,8.11
2022-12-22T05:46:03.495Z,8.05
2022-12-22T05:48:38.600Z,7.94
2022-12-22T05:51:08.576Z,7.96
2022-12-22T05:53:36.711Z,7.91
2022-12-22T05:56:05.567Z,7.95
2022-12-22T05:58:33.909Z,7.95
2022-12-22T06:01:02.418Z,7.89
2022-12-22T06:03:32.116Z,7.86
2022-12-22T06:06:00.543Z,7.80
2022-12-22T06:08:29.908Z,7.79
2022-12-22T06:10:59.589Z,7.70
2022-12-22T06:13:29.758Z,7.67
2022-12-22T06:15:58.153Z,7.69
2022-12-22T06:18:26.107Z,7.71
2022-12-22T06:20:55.739Z,7.69
2022-12-22T06:23:24.215Z,7.63
2022-12-22T06:25:57.121Z,7.67
2022-12-22T06:28:26.562Z,7.57
2022-12-22T06:30:55.252Z,7.56
2022-12-22T06:33:25.153Z,7.53
2022-12-22T06:36:00.279Z,7.51
2022-12-22T06:38:47.285Z,7.34
2022-12-22T06:41:37.840Z,7.22
2022-12-22T06:44:05.044Z,7.09
2022-12-22T06:46:53.454Z,6.88
2022-12-22T06:49:26.683Z,6.72
2022-12-22T06:51:56.244Z,6.69
2022-12-22T06:54:26.702Z,6.39
2022-12-22T06:56:54.809Z,6.10
2022-12-22T06:59:23.410Z,5.93
2022-12-22T07:01:51.361Z,5.78
2022-12-22T07:04:20.743Z,5.72
2022-12-22T07:06:48.834Z,5.87
2022-12-22T07:09:20.199Z,6.12
2022-12-22T07:11:48.068Z,6.45
2022-12-22T07:14:15.942Z,6.55
2022-12-22T07:16:43.858Z,6.71
2022-12-22T07:19:12.000Z,6.80
2022-12-22T07:21:40.375Z,6.92
2022-12-22T07:24:09.061Z,6.96
2022-12-22T07:26:38.499Z,6.95
2022-12-22T07:29:10.238Z,6.95
2022-12-22T07:31:39.339Z,6.97
2022-12-22T07:34:07.587Z,6.90
2022-12-22T07:36:36.581Z,6.80
2022-12-22T07:39:13.531Z,6.85
2022-12-22T07:42:03.323Z,6.84
2022-12-22T07:44:31.256Z,6.79
2022-12-22T07:47:00.296Z,6.74
2022-12-22T07:49:47.802Z,6.74
2022-12-22T07:52:17.038Z,6.77
2022-12-22T07:54:45.864Z,6.74
2022-12-22T07:57:15.405Z,6.79
2022-12-22T07:59:57.936Z,6.82
2022-12-22T08:02:36.866Z,6.74
2022-12-22T08:05:08.203Z,6.72
2022-12-22T08:07:38.720Z,6.76
2022-12-22T08:10:09.748Z,6.73
2022-12-22T08:12:46.717Z,6.76
2022-12-22T08:15:15.321Z,6.76
2022-12-22T08:17:44.857Z,6.70
2022-12-22T08:20:13.350Z,6.68
2022-12-22T08:22:41.167Z,6.63
2022-12-22T08:25:10.008Z,6.66
2022-12-22T08:27:45.326Z,6.66
2022-12-22T08:30:16.384Z,6.52
2022-12-22T08:32:48.435Z,6.48
2022-12-22T08:35:17.533Z,6.55
2022-12-22T08:37:47.683Z,6.47
2022-12-22T08:40:19.052Z,6.37
2022-12-22T08:42:50.946Z,6.41
2022-12-22T08:45:18.886Z,6.35
2022-12-22T08:47:48.140Z,6.36
2022-12-22T08:50:16.374Z,6.20
2022-12-22T08:52:44.265Z,6.10
2022-12-22T08:55:12.522Z,6.01
2022-12-22T08:57:40.380Z,5.92
2022-12-22T09:00:13.120Z,5.96
2022-12-22T09:02:41.299Z,5.90
2022-12-22T09:05:09.828Z,6.07
2022-12-22T09:07:39.154Z,6.06
2022-12-22T09:10:08.143Z,6.08
2022-12-22T09:12:36.537Z,6.07
2022-12-22T09:15:06.456Z,6.14
2022-12-22T09:17:37.143Z,6.08
2022-12-22T09:20:06.714Z,6.12
2022-12-22T09:22:34.608Z,6.15
2022-12-22T09:25:02.508Z,6.17
2022-12-22T09:27:31.564Z,6.11
2022-12-22T09:29:59.448Z,6.13
2022-12-22T09:32:28.523Z,6.24
2022-12-22T09:34:57.986Z,6.22
2022-12-22T09:37:25.907Z,6.23
2022-12-22T09:39:53.771Z,6.25
2022-12-22T09:42:24.230Z,6.04
2022-12-22T09:44:53.708Z,6.02
2022-12-22T09:47:27.555Z,5.94
2022-12-22T09:49:58.640Z,5.85
2022-12-22T09:52:41.800Z,5.88
2022-12-22T09:55:19.125Z,5.88
2022-12-22T09:57:47.036Z,5.98
2022-12-22T10:00:17.138Z,5.93
2022-12-22T10:02:53.079Z,5.90
2022-12-22T10:05:38.320Z,5.86
2022-12-22T10:08:12.998Z,5.88
2022-12-22T10:10:41.456Z,6.00
2022-12-22T10:13:18.420Z,6.11
2022-12-22T10:15:46.714Z,6.22
2022-12-22T10:18:17.219Z,6.35
2022-12-22T10:20:50.120Z,6.44
2022-12-22T10:23:21.666Z,6.38
2022-12-22T10:29:00.857Z,6.56
2022-12-22T10:31:30.162Z,6.80
2022-12-22T10:34:13.010Z,6.69
2022-12-22T10:36:51.296Z,6.79
2022-12-22T10:39:23.488Z,7.00
2022-12-22T10:41:55.285Z,6.91
2022-12-22T10:44:26.556Z,7.04
2022-12-22T10:46:56.363Z,7.06
2022-12-22T10:49:27.525Z,7.39
2022-12-22T10:52:10.204Z,7.44
2022-12-22T10:54:41.069Z,7.45
2022-12-22T10:57:28.384Z,7.57
2022-12-22T11:03:57.673Z,7.78
2022-12-22T11:06:28.863Z,7.73
2022-12-22T11:09:31.239Z,8.08
2022-12-22T11:11:57.554Z,8.07
2022-12-22T11:14:36.662Z,7.75
2022-12-22T11:17:13.653Z,7.54
2022-12-22T11:20:04.668Z,7.83
2022-12-22T11:22:39.938Z,8.20
2022-12-22T11:25:24.783Z,8.33
2022-12-22T11:28:11.329Z,8.45
2022-12-22T11:30:51.971Z,8.37
2022-12-22T11:33:39.510Z,8.35
2022-12-22T11:36:14.523Z,8.33
2022-12-22T11:38:51.281Z,8.16
2022-12-22T11:41:37.015Z,8.09
2022-12-22T11:44:35.658Z,7.92
2022-12-22T11:47:15.157Z,8.22
2022-12-22T11:49:52.927Z,8.22
2022-12-22T11:52:39.404Z,8.16
2022-12-22T11:55:26.094Z,8.32
2022-12-22T11:58:18.369Z,8.46
2022-12-22T12:01:16.253Z,8.65
2022-12-22T12:04:30.513Z,8.23
2022-12-22T12:07:25.380Z,8.36
2022-12-22T12:10:03.479Z,8.33
2022-12-22T12:12:45.545Z,8.31
2022-12-22T12:15:27.850Z,8.19
2022-12-22T12:18:26.359Z,8.33
2022-12-22T12:21:03.654Z,8.32
2022-12-22T12:23:47.311Z,8.40
2022-12-22T12:26:20.465Z,8.71
2022-12-22T12:29:01.783Z,9.27
2022-12-22T12:31:35.774Z,9.62
2022-12-22T12:34:04.784Z,9.90
2022-12-22T12:36:44.951Z,10.25
2022-12-22T12:39:21.012Z,10.38
2022-12-22T12:42:00.563Z,10.52
2022-12-22T12:44:31.612Z,10.43
2022-12-22T12:47:24.565Z,10.28
2022-12-22T12:50:03.747Z,10.43
2022-12-22T12:53:14.823Z,10.89
2022-12-22T12:55:57.775Z,10.56
2022-12-22T12:58:52.919Z,9.87
2022-12-22T13:01:58.484Z,9.46
2022-12-22T13:05:04.441Z,9.36
2022-12-22T13:08:15.590Z,9.33
2022-12-22T13:11:03.092Z,9.25
2022-12-22T13:13:48.953Z,9.20
2022-12-22T13:16:39.490Z,9.06
2022-12-22T13:19:22.896Z,9.20
2022-12-22T13:21:57.839Z,9.41
2022-12-22T13:24:30.093Z,9.53
2022-12-22T13:27:06.911Z,9.09
2022-12-22T13:29:44.370Z,9.28
2022-12-22T13:32:26.308Z,9.20
2022-12-22T13:35:30.344Z,9.09
2022-12-22T13:37:53.855Z,9.23
2022-12-22T13:40:23.902Z,9.37
2022-12-22T13:42:53.980Z,9.39
2022-12-22T13:45:38.271Z,9.37
2022-12-22T13:48:10.859Z,9.62
2022-12-22T13:50:43.835Z,9.52
2022-12-22T13:53:49.535Z,9.61
2022-12-22T13:56:09.725Z,9.82
2022-12-22T13:58:42.843Z,9.75
2022-12-22T14:01:19.887Z,9.91
2022-12-22T14:04:01.284Z,9.75
2022-12-22T14:06:33.726Z,9.97
2022-12-22T14:09:15.401Z,9.62
2022-12-22T14:11:51.513Z,9.27
2022-12-22T14:14:26.149Z,9.11
2022-12-22T14:16:57.000Z,9.09
2022-12-22T14:19:27.428Z,9.04
2022-12-22T14:22:06.943Z,9.05
2022-12-22T14:24:43.243Z,9.01
2022-12-22T14:27:20.029Z,9.05
2022-12-22T14:29:48.246Z,9.01
2022-12-22T14:32:39.206Z,9.07
2022-12-22T14:35:23.707Z,9.04
2022-12-22T14:37:56.095Z,9.08
2022-12-22T14:40:38.629Z,8.98
2022-12-22T14:43:25.455Z,8.80
2022-12-22T14:46:04.252Z,8.65
2022-12-22T14:48:36.019Z,8.54
2022-12-22T14:51:07.169Z,8.49
2022-12-22T14:53:44.567Z,8.44
2022-12-22T14:56:15.189Z,8.42
2022-12-22T14:58:47.564Z,8.37
2022-12-22T15:01:21.858Z,8.32
2022-12-22T15:04:07.180Z,8.36
2022-12-22T15:06:48.352Z,8.33
2022-12-22T15:10:16.458Z,8.24
2022-12-22T15:12:47.692Z,8.17
2022-12-22T15:15:19.904Z,8.17
2022-12-22T15:17:51.223Z,8.09
2022-12-22T15:20:42.138Z,8.06
2022-12-22T15:23:14.902Z,7.99
2022-12-22T15:25:47.142Z,7.87
2022-12-22T15:28:25.994Z,7.88
2022-12-22T15:31:13.994Z,7.78
2022-12-22T15:33:50.551Z,7.74
2022-12-22T15:36:23.647Z,7.69
2022-12-22T15:38:58.090Z,7.66
2022-12-22T15:41:28.354Z,7.71
2022-12-22T15:43:59.229Z,7.63
2022-12-22T15:46:28.908Z,7.64
2022-12-22T15:48:58.162Z,7.73
2022-12-22T15:51:30.936Z,7.75
2022-12-22T15:54:00.764Z,7.74
2022-12-22T15:56:33.414Z,7.72
2022-12-22T15:59:07.255Z,7.77
2022-12-22T16:01:37.562Z,7.75
2022-12-22T16:04:06.026Z,7.77
2022-12-22T16:06:37.130Z,7.77
2022-12-22T16:09:12.145Z,7.67
2022-12-22T16:11:40.262Z,7.66
2022-12-22T16:14:11.435Z,7.62
2022-12-22T16:16:40.145Z,7.63
2022-12-22T16:19:13.683Z,7.67
2022-12-22T16:21:42.065Z,7.61
2022-12-22T16:24:17.857Z,7.60
2022-12-22T16:26:48.453Z,7.63
2022-12-22T16:29:20.370Z,7.63
2022-12-22T16:31:50.503Z,7.63
2022-12-22T16:34:20.262Z,7.61
2022-12-22T16:36:48.092Z,7.63
2022-12-22T16:39:16.153Z,7.67
2022-12-22T16:41:45.735Z,7.67
2022-12-22T16:44:24.416Z,7.70
2022-12-22T16:46:54.011Z,7.68
2022-12-22T16:49:26.610Z,7.62
2022-12-22T16:51:58.658Z,7.56
2022-12-22T16:54:27.771Z,7.60
2022-12-22T16:56:57.072Z,7.55
2022-12-22T16:59:29.664Z,7.56
2022-12-22T17:02:00.172Z,7.46
2022-12-22T17:04:30.879Z,7.42
2022-12-22T17:07:02.052Z,7.43
2022-12-22T17:09:37.087Z,7.30
2022-12-22T17:14:56.295Z,7.21
2022-12-22T17:17:32.881Z,7.14
2022-12-22T17:20:07.625Z,7.11
2022-12-22T17:22:37.060Z,7.12
2022-12-22T17:25:07.903Z,7.06
2022-12-22T17:27:39.174Z,7.02
2022-12-22T17:30:18.670Z,7.02
2022-12-22T17:32:47.076Z,6.95
2022-12-22T17:35:19.480Z,6.94
2022-12-22T17:37:49.660Z,6.93
2022-12-22T17:40:24.278Z,6.86
2022-12-22T17:42:52.436Z,6.84
2022-12-22T17:45:26.693Z,6.82
2022-12-22T17:47:58.095Z,6.85
2022-12-22T17:50:27.412Z,6.84
2022-12-22T17:56:07.353Z,6.78
2022-12-22T17:58:27.843Z,6.70
2022-12-22T18:00:57.253Z,6.62
2022-12-22T18:03:25.181Z,6.63
2022-12-22T18:05:54.986Z,6.58
2022-12-22T18:08:26.016Z,6.50
2022-12-22T18:10:57.165Z,6.52
2022-12-22T18:13:27.282Z,6.53
2022-12-22T18:15:57.966Z,6.54
2022-12-22T18:18:27.045Z,6.54
2022-12-22T18:21:07.310Z,6.52
2022-12-22T18:23:38.126Z,6.47
2022-12-22T18:26:08.835Z,6.47
2022-12-22T18:28:39.599Z,6.42
2022-12-22T18:31:09.493Z,6.49
2022-12-22T18:33:37.779Z,6.50
2022-12-22T18:36:07.176Z,6.52
2022-12-22T18:38:36.318Z,6.57
2022-12-22T18:41:04.341Z,6.56
2022-12-22T18:43:34.956Z,6.56
2022-12-22T18:46:02.860Z,6.53
2022-12-22T18:48:32.174Z,6.47
2022-12-22T18:51:00.048Z,6.44
2022-12-22T18:53:32.891Z,6.41
2022-12-22T18:56:03.405Z,6.39
2022-12-22T18:58:31.501Z,6.38
2022-12-22T19:00:59.946Z,6.40
2022-12-22T19:03:30.303Z,6.39
2022-12-22T19:05:59.660Z,6.39
2022-12-22T19:08:31.441Z,6.42
2022-12-22T19:11:01.681Z,6.45
2022-12-22T19:13:33.597Z,6.47
2022-12-22T19:16:03.100Z,6.48
2022-12-22T19:18:33.881Z,6.45
2022-12-22T19:21:13.424Z,6.46
2022-12-22T19:23:41.924Z,6.51
2022-12-22T19:26:22.925Z,6.51
2022-12-22T19:29:02.506Z,6.53
2022-12-22T19:31:32.352Z,6.53
2022-12-22T19:34:02.173Z,6.57
2022-12-22T19:36:39.884Z,6.55
2022-12-22T19:39:21.915Z,6.59
2022-12-22T19:41:52.403Z,6.57
2022-12-22T19:44:23.400Z,6.52
2022-12-22T19:46:52.389Z,6.46
2022-12-22T19:49:22.656Z,6.45
2022-12-22T19:51:53.108Z,6.50
2022-12-22T19:54:21.948Z,6.41
2022-12-22T19:56:52.215Z,6.41
2022-12-22T19:59:35.603Z,6.41
2022-12-22T20:02:24.668Z,6.42
2022-12-22T20:04:53.134Z,6.43
2022-12-22T20:07:25.363Z,6.43
2022-12-22T20:09:54.484Z,6.49
2022-12-22T20:12:26.884Z,6.49
2022-12-22T20:14:55.366Z,6.52
2022-12-22T20:17:23.539Z,6.57
2022-12-22T20:19:51.498Z,6.54
2022-12-22T20:22:23.923Z,6.51
2022-12-22T20:24:54.497Z,6.61
2022-12-22T20:27:25.495Z,6.62
2022-12-22T20:29:53.589Z,6.66
2022-12-22T20:32:27.634Z,6.66
2022-12-22T20:34:56.670Z,6.65
2022-12-22T20:37:26.354Z,6.67
2022-12-22T20:39:54.245Z,6.68
2022-12-22T20:42:24.622Z,6.67
2022-12-22T20:45:02.920Z,6.67
2022-12-22T20:47:34.541Z,6.72
2022-12-22T20:50:02.898Z,6.73
2022-12-22T20:52:32.669Z,6.70
2022-12-22T20:55:00.640Z,6.73
2022-12-22T20:57:29.053Z,6.71
2022-12-22T20:59:57.075Z,6.78
2022-12-22T21:02:30.722Z,6.71
2022-12-22T21:05:00.335Z,6.75
2022-12-22T21:07:28.408Z,6.73
2022-12-22T21:09:57.874Z,6.71
2022-12-22T21:12:25.780Z,6.70
2022-12-22T21:14:53.675Z,6.70
2022-12-22T21:17:21.850Z,6.72
2022-12-22T21:19:49.962Z,6.70
2022-12-22T21:22:17.909Z,6.72
2022-12-22T21:24:45.977Z,6.74
2022-12-22T21:27:20.015Z,6.77
2022-12-22T21:29:50.943Z,6.75
2022-12-22T21:32:18.981Z,6.76
2022-12-22T21:34:47.091Z,6.79
2022-12-22T21:37:18.776Z,6.81
2022-12-22T21:39:46.938Z,6.82
2022-12-22T21:42:18.279Z,6.80
2022-12-22T21:44:46.970Z,6.80
2022-12-22T21:47:17.597Z,6.81
2022-12-22T21:49:45.424Z,6.87
2022-12-22T21:52:13.833Z,6.90
2022-12-22T21:54:42.379Z,6.90
2022-12-22T21:57:19.398Z,6.88
2022-12-22T21:59:48.814Z,6.87
2022-12-22T22:02:21.398Z,6.87
2022-12-22T22:04:54.545Z,6.91
2022-12-22T22:07:23.161Z,6.93
2022-12-22T22:09:51.181Z,6.99
2022-12-22T22:12:37.515Z,6.98
2022-12-22T22:15:09.466Z,6.96
2022-12-22T22:17:38.024Z,6.95
2022-12-22T22:20:08.479Z,6.97
2022-12-22T22:22:36.913Z,6.96
2022-12-22T22:25:08.315Z,6.98
2022-12-22T22:27:36.547Z,6.95
2022-12-22T22:30:05.762Z,6.91
2022-12-22T22:32:35.396Z,6.97
2022-12-22T22:35:03.501Z,7.01
2022-12-22T22:37:31.746Z,7.00
2022-12-22T22:40:00.167Z,6.98
2022-12-22T22:42:30.736Z,6.99
2022-12-22T22:44:59.817Z,6.96
2022-12-22T22:47:30.248Z,6.98
2022-12-22T22:49:59.827Z,6.97
2022-12-22T22:52:30.408Z,6.97
2022-12-22T22:54:58.605Z,7.03
2022-12-22T22:57:26.709Z,7.01
2022-12-22T22:59:54.834Z,6.96
2022-12-22T23:02:23.194Z,7.00
2022-12-22T23:04:51.274Z,7.03
2022-12-22T23:07:21.804Z,7.05
2022-12-22T23:09:49.681Z,7.02
2022-12-22T23:12:17.524Z,7.03
2022-12-22T23:14:45.359Z,7.05
2022-12-22T23:17:13.383Z,7.04
2022-12-22T23:19:41.347Z,7.04
2022-12-22T23:22:12.432Z,7.05
2022-12-22T23:24:43.053Z,7.09
2022-12-22T23:27:11.331Z,7.06
2022-12-22T23:29:40.912Z,7.09
2022-12-22T23:32:08.864Z,7.09
2022-12-22T23:34:37.269Z,7.03
2022-12-22T23:37:06.145Z,7.05
2022-12-22T23:39:34.325Z,7.05
2022-12-22T23:42:04.796Z,7.04
2022-12-22T23:44:32.629Z,7.06
2022-12-22T23:47:00.576Z,7.10
2022-12-22T23:49:31.272Z,7.11
2022-12-22T23:52:09.451Z,7.11
2022-12-22T23:54:45.735Z,7.11
2022-12-22T23:57:23.949Z,7.10
2022-12-22T23:59:53.148Z,7.10
